createdAt,value
2023-01-08T00:00:13.058Z,10.46
2023-01-08T00:01:15.929Z,10.46
2023-01-08T00:02:18.575Z,10.51
2023-01-08T00:03:21.265Z,10.49
2023-01-08T00:04:23.874Z,10.46
2023-01-08T00:05:26.376Z,10.46
2023-01-08T00:06:28.892Z,10.49
2023-01-08T00:07:31.413Z,10.48
2023-01-08T00:08:34.423Z,10.50
2023-01-08T00:09:37.061Z,10.51
2023-01-08T00:10:39.937Z,10.48
2023-01-08T00:11:43.064Z,10.48
2023-01-08T00:12:45.581Z,10.52
2023-01-08T00:13:48.103Z,10.50
2023-01-08T00:14:50.628Z,10.53
2023-01-08T00:15:53.378Z,10.52
2023-01-08T00:16:55.941Z,10.53
2023-01-08T00:17:58.679Z,10.51
2023-01-08T00:19:01.220Z,10.46
2023-01-08T00:20:04.078Z,10.52
2023-01-08T00:21:07.379Z,10.51
2023-01-08T00:22:10.217Z,10.53
2023-01-08T00:23:16.917Z,10.53
2023-01-08T00:24:20.872Z,10.53
2023-01-08T00:25:23.415Z,10.49
2023-01-08T00:26:26.036Z,10.48
2023-01-08T00:27:28.675Z,10.52
2023-01-08T00:28:31.915Z,10.51
2023-01-08T00:29:34.441Z,10.51
2023-01-08T00:30:37.754Z,10.54
2023-01-08T00:31:41.528Z,10.54
2023-01-08T00:32:44.045Z,10.50
2023-01-08T00:33:46.695Z,10.52
2023-01-08T00:34:49.212Z,10.51
2023-01-08T00:35:51.847Z,10.54
2023-01-08T00:36:54.611Z,10.50
2023-01-08T00:37:57.252Z,10.52
2023-01-08T00:39:00.857Z,10.54
2023-01-08T00:40:03.640Z,10.48
2023-01-08T00:41:06.753Z,10.51
2023-01-08T00:42:09.629Z,10.51
2023-01-08T00:43:12.501Z,10.52
2023-01-08T00:44:15.269Z,10.52
2023-01-08T00:45:18.161Z,10.53
2023-01-08T00:46:21.281Z,10.51
2023-01-08T00:47:24.392Z,10.50
2023-01-08T00:48:27.634Z,10.48
2023-01-08T00:49:31.109Z,10.46
2023-01-08T00:50:34.236Z,10.47
2023-01-08T00:51:37.354Z,10.44
2023-01-08T00:52:40.475Z,10.48
2023-01-08T00:53:43.838Z,10.48
2023-01-08T00:54:46.961Z,10.46
2023-01-08T00:55:50.216Z,10.45
2023-01-08T00:56:55.864Z,10.47
2023-01-08T00:57:58.966Z,10.42
2023-01-08T00:59:02.085Z,10.40
2023-01-08T01:00:07.246Z,10.39
2023-01-08T01:01:14.794Z,10.48
2023-01-08T01:02:18.241Z,10.43
2023-01-08T01:03:21.418Z,10.42
2023-01-08T01:04:27.225Z,10.49
2023-01-08T01:05:30.658Z,10.48
2023-01-08T01:06:33.664Z,10.49
2023-01-08T01:07:37.621Z,10.51
2023-01-08T01:08:41.254Z,10.54
2023-01-08T01:09:44.462Z,10.54
2023-01-08T01:10:47.713Z,10.55
2023-01-08T01:11:50.827Z,10.48
2023-01-08T01:12:54.313Z,10.48
2023-01-08T01:13:57.670Z,10.55
2023-01-08T01:15:00.911Z,10.51
2023-01-08T01:16:04.993Z,10.55
2023-01-08T01:17:08.114Z,10.53
2023-01-08T01:18:11.960Z,10.55
2023-01-08T01:19:17.001Z,10.56
2023-01-08T01:20:19.878Z,10.54
2023-01-08T01:21:31.287Z,10.60
2023-01-08T01:22:34.408Z,10.59
2023-01-08T01:23:37.288Z,10.58
2023-01-08T01:24:40.289Z,10.61
2023-01-08T01:25:45.673Z,10.60
2023-01-08T01:26:48.572Z,10.59
2023-01-08T01:27:51.212Z,10.58
2023-01-08T01:28:56.308Z,10.58
2023-01-08T01:29:59.502Z,10.56
2023-01-08T01:31:03.944Z,10.58
2023-01-08T01:32:06.818Z,10.57
2023-01-08T01:33:09.467Z,10.58
2023-01-08T01:34:12.105Z,10.59
2023-01-08T01:35:14.676Z,10.57
2023-01-08T01:36:19.431Z,10.61
2023-01-08T01:37:21.873Z,10.61
2023-01-08T01:38:24.469Z,10.59
2023-01-08T01:39:27.273Z,10.58
2023-01-08T01:40:30.054Z,10.63
2023-01-08T01:41:44.558Z,10.63
2023-01-08T01:42:47.315Z,10.57
2023-01-08T01:43:49.921Z,10.58
2023-01-08T01:44:52.483Z,10.60
2023-01-08T01:45:55.152Z,10.62
2023-01-08T01:46:57.761Z,10.62
2023-01-08T01:48:04.597Z,10.65
2023-01-08T01:49:11.445Z,10.72
2023-01-08T01:50:41.332Z,10.67
2023-01-08T01:51:49.719Z,10.68
2023-01-08T01:53:01.962Z,10.65
2023-01-08T01:54:08.683Z,10.65
2023-01-08T01:55:13.249Z,10.70
2023-01-08T01:56:16.363Z,10.71
2023-01-08T01:57:19.250Z,10.67
2023-01-08T01:58:30.653Z,10.63
2023-01-08T01:59:33.261Z,10.54
2023-01-08T02:00:36.899Z,10.49
2023-01-08T02:01:41.549Z,10.51
2023-01-08T02:02:45.916Z,10.46
2023-01-08T02:03:48.700Z,10.47
2023-01-08T02:04:51.648Z,10.42
2023-01-08T02:06:09.305Z,10.39
2023-01-08T02:07:18.531Z,10.31
2023-01-08T02:08:41.820Z,10.27
2023-01-08T02:09:59.453Z,10.26
2023-01-08T02:11:10.012Z,10.23
2023-01-08T02:12:18.800Z,10.19
2023-01-08T02:13:31.752Z,10.17
2023-01-08T02:14:43.022Z,10.14
2023-01-08T02:15:52.982Z,10.14
2023-01-08T02:17:05.985Z,10.18
2023-01-08T02:18:25.500Z,10.17
2023-01-08T02:19:49.739Z,10.19
2023-01-08T02:21:13.633Z,10.20
2023-01-08T02:22:40.746Z,10.20
2023-01-08T02:23:49.505Z,10.13
2023-01-08T02:25:29.944Z,10.14
2023-01-08T02:26:34.628Z,10.12
2023-01-08T02:27:40.878Z,10.18
2023-01-08T02:28:58.510Z,10.16
2023-01-08T02:30:03.318Z,10.07
2023-01-08T02:31:06.734Z,10.06
2023-01-08T02:32:09.796Z,10.01
2023-01-08T02:33:12.559Z,9.96
2023-01-08T02:34:15.082Z,9.97
2023-01-08T02:35:17.854Z,9.98
2023-01-08T02:36:35.736Z,10.06
2023-01-08T02:37:39.329Z,10.01
2023-01-08T02:38:50.609Z,10.06
2023-01-08T02:40:26.854Z,10.15
2023-01-08T02:41:44.495Z,10.18
2023-01-08T02:43:02.145Z,10.20
2023-01-08T02:44:08.261Z,10.21
2023-01-08T02:45:29.616Z,10.18
2023-01-08T02:46:35.978Z,10.23
2023-01-08T02:48:03.002Z,10.26
2023-01-08T02:49:10.662Z,10.26
2023-01-08T02:50:22.197Z,10.29
2023-01-08T02:51:50.048Z,10.36
2023-01-08T02:53:19.672Z,10.35
2023-01-08T02:54:28.557Z,10.31
2023-01-08T02:55:35.537Z,10.37
2023-01-08T02:56:45.129Z,10.37
2023-01-08T02:57:49.198Z,10.39
2023-01-08T02:58:54.721Z,10.42
2023-01-08T02:59:58.697Z,10.41
2023-01-08T03:01:05.108Z,10.41
2023-01-08T03:02:09.382Z,10.37
2023-01-08T03:03:18.008Z,10.42
2023-01-08T03:04:24.188Z,10.41
2023-01-08T03:05:29.051Z,10.41
2023-01-08T03:06:32.660Z,10.36
2023-01-08T03:07:36.252Z,10.36
2023-01-08T03:08:46.464Z,10.37
2023-01-08T03:09:49.824Z,10.33
2023-01-08T03:11:01.227Z,10.37
2023-01-08T03:12:14.902Z,10.37
2023-01-08T03:14:15.989Z,10.35
2023-01-08T03:15:28.951Z,10.39
2023-01-08T03:16:38.275Z,10.36
2023-01-08T03:17:47.195Z,10.44
2023-01-08T03:18:56.312Z,10.43
2023-01-08T03:20:09.522Z,10.42
2023-01-08T03:21:13.960Z,10.43
2023-01-08T03:22:19.838Z,10.47
2023-01-08T03:23:25.121Z,10.46
2023-01-08T03:24:33.764Z,10.47
2023-01-08T03:25:43.639Z,10.51
2023-01-08T03:26:49.014Z,10.49
2023-01-08T03:27:57.652Z,10.50
2023-01-08T03:29:02.569Z,10.48
2023-01-08T03:30:07.980Z,10.50
2023-01-08T03:31:14.218Z,10.52
2023-01-08T03:32:19.618Z,10.50
2023-01-08T03:33:24.419Z,10.49
2023-01-08T03:34:30.057Z,10.48
2023-01-08T03:35:34.314Z,10.46
2023-01-08T03:36:40.909Z,10.48
2023-01-08T03:37:47.632Z,10.49
2023-01-08T03:38:59.148Z,10.50
2023-01-08T03:40:07.873Z,10.47
2023-01-08T03:41:13.914Z,10.41
2023-01-08T03:42:18.593Z,10.44
2023-01-08T03:43:21.192Z,10.43
2023-01-08T03:44:23.752Z,10.41
2023-01-08T03:45:28.079Z,10.45
2023-01-08T03:46:37.820Z,10.49
2023-01-08T03:47:42.203Z,10.48
2023-01-08T03:48:46.196Z,10.49
2023-01-08T03:49:51.718Z,10.49
2023-01-08T03:50:54.241Z,10.45
2023-01-08T03:51:56.879Z,10.43
2023-01-08T03:53:00.835Z,10.45
2023-01-08T03:54:03.972Z,10.49
2023-01-08T03:55:06.829Z,10.49
2023-01-08T03:56:09.483Z,10.44
2023-01-08T03:57:12.001Z,10.45
2023-01-08T03:58:14.533Z,10.43
2023-01-08T03:59:17.765Z,10.51
2023-01-08T04:00:20.406Z,10.51
2023-01-08T04:01:23.060Z,10.50
2023-01-08T04:02:25.894Z,10.51
2023-01-08T04:03:28.571Z,10.50
2023-01-08T04:04:31.240Z,10.49
2023-01-08T04:05:33.965Z,10.52
2023-01-08T04:06:36.608Z,10.54
2023-01-08T04:07:39.252Z,10.54
2023-01-08T04:08:41.770Z,10.53
2023-01-08T04:09:44.308Z,10.51
2023-01-08T04:10:46.939Z,10.48
2023-01-08T04:11:49.499Z,10.51
2023-01-08T04:12:52.591Z,10.52
2023-01-08T04:13:55.824Z,10.54
2023-01-08T04:14:58.340Z,10.55
2023-01-08T04:16:00.953Z,10.56
2023-01-08T04:17:03.737Z,10.55
2023-01-08T04:18:06.256Z,10.54
2023-01-08T04:19:10.581Z,10.55
2023-01-08T04:20:13.098Z,10.53
2023-01-08T04:21:15.504Z,10.53
2023-01-08T04:22:18.033Z,10.54
2023-01-08T04:23:20.553Z,10.55
2023-01-08T04:24:23.191Z,10.49
2023-01-08T04:25:25.828Z,10.50
2023-01-08T04:26:28.343Z,10.47
2023-01-08T04:27:30.871Z,10.53
2023-01-08T04:28:33.511Z,10.52
2023-01-08T04:29:36.271Z,10.56
2023-01-08T04:30:38.972Z,10.52
2023-01-08T04:31:41.802Z,10.51
2023-01-08T04:32:44.431Z,10.54
2023-01-08T04:33:46.958Z,10.53
2023-01-08T04:34:49.597Z,10.53
2023-01-08T04:35:52.364Z,10.50
2023-01-08T04:36:55.005Z,10.51
2023-01-08T04:37:57.661Z,10.55
2023-01-08T04:39:00.410Z,10.50
2023-01-08T04:40:03.171Z,10.55
2023-01-08T04:41:07.043Z,10.55
2023-01-08T04:42:10.497Z,10.52
2023-01-08T04:43:13.249Z,10.50
2023-01-08T04:44:16.265Z,10.53
2023-01-08T04:45:19.390Z,10.51
2023-01-08T04:46:22.427Z,10.54
2023-01-08T04:47:25.511Z,10.50
2023-01-08T04:48:29.580Z,10.51
2023-01-08T04:49:32.707Z,10.47
2023-01-08T04:50:35.597Z,10.52
2023-01-08T04:51:39.082Z,10.48
2023-01-08T04:52:42.192Z,10.46
2023-01-08T04:53:46.628Z,10.45
2023-01-08T04:54:49.756Z,10.43
2023-01-08T04:55:52.874Z,10.45
2023-01-08T04:56:56.000Z,10.42
2023-01-08T04:57:59.114Z,10.42
2023-01-08T04:59:02.498Z,10.39
2023-01-08T05:00:06.564Z,10.40
2023-01-08T05:01:16.615Z,10.46
2023-01-08T05:02:20.117Z,10.36
2023-01-08T05:03:23.539Z,10.39
2023-01-08T05:04:26.728Z,10.35
2023-01-08T05:05:29.968Z,10.39
2023-01-08T05:06:34.070Z,10.46
2023-01-08T05:07:37.293Z,10.39
2023-01-08T05:08:40.418Z,10.38
2023-01-08T05:09:43.412Z,10.38
2023-01-08T05:10:46.533Z,10.40
2023-01-08T05:11:49.538Z,10.38
2023-01-08T05:12:52.666Z,10.31
2023-01-08T05:13:57.105Z,10.31
2023-01-08T05:15:00.704Z,10.32
2023-01-08T05:16:04.038Z,10.33
2023-01-08T05:17:07.427Z,10.31
2023-01-08T05:18:11.169Z,10.29
2023-01-08T05:19:14.639Z,10.35
2023-01-08T05:20:19.110Z,10.32
2023-01-08T05:21:23.873Z,10.32
2023-01-08T05:22:27.114Z,10.34
2023-01-08T05:23:31.443Z,10.31
2023-01-08T05:24:35.758Z,10.27
2023-01-08T05:25:38.641Z,10.23
2023-01-08T05:26:41.407Z,10.23
2023-01-08T05:27:44.405Z,10.20
2023-01-08T05:28:47.434Z,10.23
2023-01-08T05:29:51.853Z,10.24
2023-01-08T05:30:55.725Z,10.24
2023-01-08T05:31:58.822Z,10.25
2023-01-08T05:33:01.577Z,10.20
2023-01-08T05:34:04.335Z,10.18
2023-01-08T05:35:07.576Z,10.18
2023-01-08T05:36:12.263Z,10.21
2023-01-08T05:37:14.827Z,10.20
2023-01-08T05:38:17.665Z,10.21
2023-01-08T05:39:20.236Z,10.22
2023-01-08T05:40:22.876Z,10.23
2023-01-08T05:41:25.588Z,10.20
2023-01-08T05:42:28.377Z,10.21
2023-01-08T05:43:31.272Z,10.19
2023-01-08T05:44:33.791Z,10.17
2023-01-08T05:45:36.441Z,10.18
2023-01-08T05:46:38.978Z,10.15
2023-01-08T05:47:41.795Z,10.17
2023-01-08T05:48:44.346Z,10.16
2023-01-08T05:49:47.022Z,10.19
2023-01-08T05:50:50.610Z,10.19
2023-01-08T05:51:58.999Z,10.20
2023-01-08T05:53:01.517Z,10.12
2023-01-08T05:54:04.281Z,10.10
2023-01-08T05:55:07.157Z,10.12
2023-01-08T05:56:11.716Z,10.15
2023-01-08T05:57:14.363Z,10.14
2023-01-08T05:58:19.362Z,10.09
2023-01-08T05:59:21.921Z,10.13
2023-01-08T06:00:26.529Z,10.12
2023-01-08T06:01:29.311Z,10.09
2023-01-08T06:02:32.000Z,10.14
2023-01-08T06:03:34.884Z,10.14
2023-01-08T06:04:37.505Z,10.09
2023-01-08T06:05:40.168Z,10.10
2023-01-08T06:06:42.692Z,10.07
2023-01-08T06:07:45.226Z,10.07
2023-01-08T06:08:47.851Z,10.09
2023-01-08T06:09:50.369Z,10.07
2023-01-08T06:10:53.129Z,10.02
2023-01-08T06:11:58.174Z,9.97
2023-01-08T06:13:00.700Z,9.94
2023-01-08T06:14:03.277Z,9.88
2023-01-08T06:15:06.456Z,9.88
2023-01-08T06:16:09.739Z,9.88
2023-01-08T06:17:12.339Z,9.87
2023-01-08T06:18:14.859Z,9.76
2023-01-08T06:19:19.183Z,9.72
2023-01-08T06:20:21.709Z,9.62
2023-01-08T06:21:24.234Z,9.63
2023-01-08T06:22:27.588Z,9.61
2023-01-08T06:23:30.104Z,9.63
2023-01-08T06:24:32.618Z,9.66
2023-01-08T06:25:35.861Z,9.55
2023-01-08T06:26:38.395Z,9.56
2023-01-08T06:27:40.900Z,9.52
2023-01-08T06:28:43.556Z,9.46
2023-01-08T06:29:46.068Z,9.46
2023-01-08T06:30:49.325Z,9.48
2023-01-08T06:31:51.841Z,9.53
2023-01-08T06:32:58.088Z,9.53
2023-01-08T06:34:00.724Z,9.47
2023-01-08T06:35:03.599Z,9.46
2023-01-08T06:36:06.475Z,9.43
2023-01-08T06:37:09.002Z,9.42
2023-01-08T06:38:11.639Z,9.43
2023-01-08T06:39:14.162Z,9.39
2023-01-08T06:40:16.811Z,9.37
2023-01-08T06:41:19.363Z,9.33
2023-01-08T06:42:22.223Z,9.36
2023-01-08T06:43:25.211Z,9.34
2023-01-08T06:44:28.239Z,9.33
2023-01-08T06:45:31.586Z,9.31
2023-01-08T06:46:38.477Z,9.33
2023-01-08T06:47:41.415Z,9.30
2023-01-08T06:48:44.417Z,9.25
2023-01-08T06:49:47.302Z,9.29
2023-01-08T06:50:50.427Z,9.31
2023-01-08T06:51:53.451Z,9.30
2023-01-08T06:52:57.026Z,9.28
2023-01-08T06:54:00.147Z,9.23
2023-01-08T06:55:05.188Z,9.25
2023-01-08T06:56:11.248Z,9.26
2023-01-08T06:57:14.321Z,9.17
2023-01-08T06:58:17.432Z,9.16
2023-01-08T06:59:20.579Z,9.14
2023-01-08T07:00:26.446Z,9.18
2023-01-08T07:01:29.679Z,9.16
2023-01-08T07:02:33.054Z,9.13
2023-01-08T07:03:36.367Z,9.12
2023-01-08T07:04:39.529Z,9.10
2023-01-08T07:05:42.656Z,9.08
2023-01-08T07:06:46.007Z,9.08
2023-01-08T07:07:49.375Z,9.09
2023-01-08T07:08:52.490Z,9.09
2023-01-08T07:09:55.622Z,9.10
2023-01-08T07:11:04.024Z,9.10
2023-01-08T07:12:09.297Z,9.10
2023-01-08T07:13:13.258Z,9.00
2023-01-08T07:14:16.378Z,8.93
2023-01-08T07:15:19.864Z,8.90
2023-01-08T07:16:23.362Z,8.89
2023-01-08T07:17:26.587Z,8.85
2023-01-08T07:18:29.825Z,8.84
2023-01-08T07:19:32.949Z,8.86
2023-01-08T07:20:36.914Z,8.92
2023-01-08T07:21:40.035Z,8.91
2023-01-08T07:22:43.174Z,8.93
2023-01-08T07:23:49.164Z,8.96
2023-01-08T07:24:53.355Z,8.95
2023-01-08T07:25:56.478Z,8.96
2023-01-08T07:26:59.367Z,8.94
2023-01-08T07:28:02.484Z,8.90
2023-01-08T07:29:05.362Z,8.94
2023-01-08T07:30:18.042Z,8.91
2023-01-08T07:31:27.230Z,8.87
2023-01-08T07:32:29.907Z,8.84
2023-01-08T07:33:32.868Z,8.86
2023-01-08T07:34:35.543Z,8.83
2023-01-08T07:35:39.153Z,8.80
2023-01-08T07:36:41.862Z,8.80
2023-01-08T07:37:44.623Z,8.80
2023-01-08T07:38:47.184Z,8.81
2023-01-08T07:39:49.704Z,8.79
2023-01-08T07:40:52.475Z,8.79
2023-01-08T07:41:54.947Z,8.74
2023-01-08T07:43:03.681Z,8.82
2023-01-08T07:44:06.475Z,8.78
2023-01-08T07:45:09.274Z,8.82
2023-01-08T07:46:11.921Z,8.78
2023-01-08T07:47:14.513Z,8.81
2023-01-08T07:48:17.154Z,8.83
2023-01-08T07:49:19.588Z,8.86
2023-01-08T07:50:22.112Z,8.87
2023-01-08T07:51:24.842Z,8.90
2023-01-08T07:52:27.291Z,8.90
2023-01-08T07:53:30.277Z,8.94
2023-01-08T07:54:32.817Z,8.88
2023-01-08T07:55:35.765Z,8.86
2023-01-08T07:56:38.316Z,8.88
2023-01-08T07:57:40.843Z,8.86
2023-01-08T07:58:43.817Z,8.89
2023-01-08T07:59:46.484Z,8.84
2023-01-08T08:00:49.013Z,8.81
2023-01-08T08:01:51.628Z,8.81
2023-01-08T08:02:54.373Z,8.84
2023-01-08T08:03:56.921Z,8.83
2023-01-08T08:04:59.445Z,8.86
2023-01-08T08:06:01.967Z,8.81
2023-01-08T08:07:04.722Z,8.88
2023-01-08T08:08:12.182Z,8.98
2023-01-08T08:09:14.697Z,8.95
2023-01-08T08:10:17.445Z,8.99
2023-01-08T08:11:19.985Z,8.96
2023-01-08T08:12:22.492Z,8.97
2023-01-08T08:13:25.128Z,8.97
2023-01-08T08:14:27.649Z,8.98
2023-01-08T08:15:30.293Z,8.95
2023-01-08T08:16:33.016Z,8.92
2023-01-08T08:17:35.568Z,8.95
2023-01-08T08:18:38.336Z,8.97
2023-01-08T08:19:43.854Z,8.88
2023-01-08T08:20:46.376Z,8.92
2023-01-08T08:21:48.899Z,8.87
2023-01-08T08:22:51.661Z,8.85
2023-01-08T08:23:54.180Z,8.85
2023-01-08T08:24:56.705Z,8.86
2023-01-08T08:25:59.235Z,8.84
2023-01-08T08:27:01.741Z,8.86
2023-01-08T08:28:04.769Z,8.88
2023-01-08T08:29:07.261Z,8.84
2023-01-08T08:30:11.590Z,8.85
2023-01-08T08:31:14.349Z,8.86
2023-01-08T08:32:17.106Z,8.93
2023-01-08T08:33:19.750Z,8.96
2023-01-08T08:34:22.752Z,9.02
2023-01-08T08:35:25.399Z,8.96
2023-01-08T08:36:29.726Z,8.97
2023-01-08T08:37:32.369Z,8.94
2023-01-08T08:38:37.875Z,8.99
2023-01-08T08:39:40.520Z,8.93
2023-01-08T08:40:43.761Z,8.97
2023-01-08T08:41:46.404Z,9.02
2023-01-08T08:42:48.924Z,9.02
2023-01-08T08:43:51.701Z,9.00
2023-01-08T08:44:54.450Z,9.00
2023-01-08T08:45:57.450Z,9.03
2023-01-08T08:47:00.411Z,9.05
2023-01-08T08:48:06.334Z,9.12
2023-01-08T08:49:09.341Z,9.15
2023-01-08T08:50:12.240Z,9.14
2023-01-08T08:51:15.239Z,9.14
2023-01-08T08:52:18.340Z,9.15
2023-01-08T08:53:21.349Z,9.13
2023-01-08T08:54:24.476Z,9.15
2023-01-08T08:55:28.554Z,9.15
2023-01-08T08:56:31.672Z,9.16
2023-01-08T08:57:34.790Z,9.19
2023-01-08T08:58:38.038Z,9.18
2023-01-08T08:59:41.156Z,9.22
2023-01-08T09:00:44.402Z,9.21
2023-01-08T09:01:47.608Z,9.18
2023-01-08T09:02:51.622Z,9.20
2023-01-08T09:03:54.722Z,9.23
2023-01-08T09:04:57.838Z,9.23
2023-01-08T09:06:01.449Z,9.25
2023-01-08T09:07:04.563Z,9.29
2023-01-08T09:08:07.804Z,9.33
2023-01-08T09:09:11.048Z,9.39
2023-01-08T09:10:14.167Z,9.37
2023-01-08T09:11:17.296Z,9.36
2023-01-08T09:12:20.411Z,9.32
2023-01-08T09:13:23.419Z,9.33
2023-01-08T09:14:26.537Z,9.29
2023-01-08T09:15:29.664Z,9.29
2023-01-08T09:16:33.547Z,9.34
2023-01-08T09:17:37.347Z,9.40
2023-01-08T09:18:40.589Z,9.44
2023-01-08T09:19:43.943Z,9.44
2023-01-08T09:20:47.066Z,9.52
2023-01-08T09:21:51.393Z,9.54
2023-01-08T09:22:54.634Z,9.50
2023-01-08T09:23:57.871Z,9.45
2023-01-08T09:25:01.120Z,9.46
2023-01-08T09:26:05.569Z,9.50
2023-01-08T09:27:11.056Z,9.46
2023-01-08T09:28:14.080Z,9.50
2023-01-08T09:29:16.842Z,9.49
2023-01-08T09:30:19.721Z,9.48
2023-01-08T09:31:22.511Z,9.48
2023-01-08T09:32:25.245Z,9.43
2023-01-08T09:33:28.014Z,9.48
2023-01-08T09:34:31.849Z,10.04
2023-01-08T09:35:34.879Z,10.83
2023-01-08T09:36:37.612Z,11.40
2023-01-08T09:37:40.253Z,12.09
2023-01-08T09:38:44.023Z,12.67
2023-01-08T09:39:51.295Z,13.22
2023-01-08T09:41:07.617Z,13.77
2023-01-08T09:42:13.259Z,14.51
2023-01-08T09:43:20.221Z,15.04
2023-01-08T09:44:26.750Z,15.86
2023-01-08T09:45:31.906Z,16.52
2023-01-08T09:46:35.336Z,16.80
2023-01-08T09:47:41.281Z,16.70
2023-01-08T09:48:43.910Z,17.03
2023-01-08T09:49:48.801Z,16.90
2023-01-08T09:50:51.602Z,16.94
2023-01-08T09:51:54.720Z,16.90
2023-01-08T09:52:57.357Z,16.87
2023-01-08T09:54:00.115Z,16.95
2023-01-08T09:55:02.880Z,17.32
2023-01-08T09:56:14.169Z,17.21
2023-01-08T09:57:19.564Z,17.36
2023-01-08T09:58:30.958Z,17.53
2023-01-08T09:59:33.571Z,17.93
2023-01-08T10:00:36.181Z,17.64
2023-01-08T10:01:41.358Z,17.39
2023-01-08T10:02:44.839Z,17.06
2023-01-08T10:04:08.642Z,17.05
2023-01-08T10:05:16.806Z,16.88
2023-01-08T10:06:19.692Z,16.50
2023-01-08T10:07:24.838Z,17.16
2023-01-08T10:08:27.364Z,17.23
2023-01-08T10:09:31.807Z,16.74
2023-01-08T10:10:36.487Z,17.20
2023-01-08T10:11:44.284Z,16.97
2023-01-08T10:12:48.493Z,17.23
2023-01-08T10:13:54.503Z,17.20
2023-01-08T10:15:07.334Z,17.25
2023-01-08T10:16:16.707Z,17.57
2023-01-08T10:17:36.989Z,17.12
2023-01-08T10:18:41.315Z,17.55
2023-01-08T10:19:45.492Z,17.52
2023-01-08T10:20:48.135Z,17.84
2023-01-08T10:21:51.493Z,17.15
2023-01-08T10:22:54.609Z,17.25
2023-01-08T10:23:57.129Z,17.15
2023-01-08T10:25:18.525Z,16.59
2023-01-08T10:26:33.265Z,16.72
2023-01-08T10:28:01.697Z,16.87
2023-01-08T10:29:17.298Z,17.42
2023-01-08T10:30:33.766Z,17.69
2023-01-08T10:31:55.479Z,18.26
2023-01-08T10:33:04.226Z,18.05
2023-01-08T10:34:11.080Z,17.84
2023-01-08T10:35:18.146Z,18.14
2023-01-08T10:36:24.387Z,17.86
2023-01-08T10:37:39.514Z,16.94
2023-01-08T10:39:17.078Z,17.49
2023-01-08T10:40:47.676Z,18.04
2023-01-08T10:41:53.917Z,17.66
2023-01-08T10:42:59.084Z,17.69
2023-01-08T10:44:07.607Z,17.91
2023-01-08T10:45:21.910Z,18.20
2023-01-08T10:46:50.209Z,18.64
2023-01-08T10:47:58.272Z,18.51
2023-01-08T10:49:03.175Z,19.20
2023-01-08T10:50:19.376Z,19.24
2023-01-08T10:51:25.397Z,19.62
2023-01-08T10:52:34.130Z,19.55
2023-01-08T10:53:37.139Z,19.40
2023-01-08T10:54:41.342Z,18.33
2023-01-08T10:55:44.461Z,18.24
2023-01-08T10:56:47.581Z,18.72
2023-01-08T10:58:16.627Z,18.91
2023-01-08T10:59:23.840Z,18.85
2023-01-08T11:00:28.649Z,19.13
2023-01-08T11:01:33.239Z,19.55
2023-01-08T11:02:39.824Z,19.38
2023-01-08T11:03:43.399Z,19.53
2023-01-08T11:04:52.273Z,18.70
2023-01-08T11:05:55.767Z,18.74
2023-01-08T11:07:03.440Z,18.79
2023-01-08T11:08:14.243Z,18.29
2023-01-08T11:09:17.243Z,18.39
2023-01-08T11:10:27.812Z,18.40
2023-01-08T11:11:35.127Z,19.18
2023-01-08T11:12:42.088Z,18.70
2023-01-08T11:14:38.623Z,18.58
2023-01-08T11:15:42.582Z,18.06
2023-01-08T11:16:46.655Z,18.75
2023-01-08T11:17:50.017Z,18.98
2023-01-08T11:18:53.258Z,18.69
2023-01-08T11:20:08.265Z,18.59
2023-01-08T11:21:26.154Z,18.84
2023-01-08T11:22:30.952Z,18.54
2023-01-08T11:23:34.194Z,18.93
2023-01-08T11:24:42.713Z,18.51
2023-01-08T11:26:09.117Z,17.56
2023-01-08T11:27:31.075Z,17.43
2023-01-08T11:28:43.197Z,17.97
2023-01-08T11:30:01.447Z,17.84
2023-01-08T11:31:14.034Z,18.05
2023-01-08T11:32:19.581Z,18.28
2023-01-08T11:33:26.522Z,18.69
2023-01-08T11:34:35.525Z,18.83
2023-01-08T11:35:42.899Z,18.34
2023-01-08T11:36:54.849Z,18.28
2023-01-08T11:38:00.187Z,18.28
2023-01-08T11:39:03.073Z,18.52
2023-01-08T11:40:31.694Z,18.47
2023-01-08T11:42:12.427Z,18.51
2023-01-08T11:43:31.001Z,18.46
2023-01-08T11:45:06.918Z,18.38
2023-01-08T11:46:21.201Z,18.00
2023-01-08T11:48:00.506Z,17.17
2023-01-08T11:49:47.792Z,17.45
2023-01-08T11:51:23.233Z,17.84
2023-01-08T11:52:48.560Z,18.80
2023-01-08T11:53:59.610Z,18.47
2023-01-08T11:55:13.036Z,18.65
2023-01-08T11:56:37.514Z,17.89
2023-01-08T11:57:52.155Z,18.86
2023-01-08T11:58:57.532Z,18.73
2023-01-08T12:00:18.078Z,18.33
2023-01-08T12:01:54.629Z,18.16
2023-01-08T12:03:03.600Z,18.33
2023-01-08T12:04:36.688Z,18.59
2023-01-08T12:05:50.991Z,18.42
2023-01-08T12:07:11.367Z,17.89
2023-01-08T12:08:22.763Z,17.70
2023-01-08T12:09:40.761Z,18.55
2023-01-08T12:11:00.445Z,18.80
2023-01-08T12:12:05.505Z,18.57
2023-01-08T12:13:25.054Z,18.07
2023-01-08T12:14:53.129Z,18.59
2023-01-08T12:16:03.984Z,18.61
2023-01-08T12:17:13.173Z,18.30
2023-01-08T12:18:42.687Z,18.86
2023-01-08T12:20:12.690Z,19.01
2023-01-08T12:21:31.173Z,17.96
2023-01-08T12:22:52.411Z,18.17
2023-01-08T12:24:00.702Z,18.64
2023-01-08T12:25:11.975Z,18.63
2023-01-08T12:27:08.616Z,18.91
2023-01-08T12:28:53.139Z,19.44
2023-01-08T12:30:07.416Z,19.71
2023-01-08T12:31:31.558Z,19.40
2023-01-08T12:32:38.145Z,19.51
2023-01-08T12:33:48.113Z,19.51
2023-01-08T12:35:14.392Z,18.29
2023-01-08T12:36:24.108Z,18.14
2023-01-08T12:37:34.190Z,17.14
2023-01-08T12:38:40.195Z,16.09
2023-01-08T12:39:56.995Z,15.32
2023-01-08T12:41:05.639Z,15.45
2023-01-08T12:42:19.440Z,14.89
2023-01-08T12:43:35.758Z,14.62
2023-01-08T12:44:38.890Z,14.64
2023-01-08T12:45:46.337Z,14.52
2023-01-08T12:46:51.005Z,14.20
2023-01-08T12:48:15.247Z,14.95
2023-01-08T12:49:25.572Z,15.57
2023-01-08T12:50:39.618Z,15.56
2023-01-08T12:51:42.614Z,15.70
2023-01-08T12:52:58.937Z,16.19
2023-01-08T12:54:30.017Z,16.15
2023-01-08T12:55:47.661Z,16.28
2023-01-08T12:57:03.152Z,16.02
2023-01-08T12:58:35.663Z,16.43
2023-01-08T13:00:10.345Z,16.93
2023-01-08T13:01:35.011Z,15.62
2023-01-08T13:02:50.119Z,14.68
2023-01-08T13:03:55.471Z,14.01
2023-01-08T13:05:15.152Z,13.50
2023-01-08T13:06:20.197Z,13.13
2023-01-08T13:07:32.316Z,12.83
2023-01-08T13:08:40.840Z,12.56
2023-01-08T13:09:44.566Z,12.35
2023-01-08T13:10:54.296Z,12.21
2023-01-08T13:12:00.404Z,12.13
2023-01-08T13:13:04.851Z,11.95
2023-01-08T13:14:14.207Z,11.86
2023-01-08T13:15:27.771Z,11.93
2023-01-08T13:16:39.389Z,11.70
2023-01-08T13:17:49.134Z,11.78
2023-01-08T13:19:03.417Z,11.81
2023-01-08T13:20:07.981Z,11.68
2023-01-08T13:21:13.292Z,11.68
2023-01-08T13:22:31.749Z,11.79
2023-01-08T13:23:36.554Z,11.83
2023-01-08T13:24:41.584Z,11.77
2023-01-08T13:25:54.066Z,11.80
2023-01-08T13:27:15.428Z,11.91
2023-01-08T13:28:27.791Z,11.85
2023-01-08T13:29:42.933Z,11.96
2023-01-08T13:30:50.115Z,11.74
2023-01-08T13:31:53.531Z,12.01
2023-01-08T13:32:56.482Z,12.28
2023-01-08T13:33:59.131Z,12.67
2023-01-08T13:35:24.083Z,12.67
2023-01-08T13:36:30.930Z,12.61
2023-01-08T13:37:33.689Z,12.52
2023-01-08T13:38:36.453Z,12.23
2023-01-08T13:39:39.693Z,12.11
2023-01-08T13:40:45.021Z,12.00
2023-01-08T13:42:20.541Z,11.86
2023-01-08T13:43:24.981Z,11.73
2023-01-08T13:44:34.619Z,11.76
2023-01-08T13:45:37.403Z,11.69
2023-01-08T13:46:41.087Z,11.71
2023-01-08T13:47:44.787Z,11.70
2023-01-08T13:49:03.516Z,11.75
2023-01-08T13:50:16.428Z,11.73
2023-01-08T13:51:43.952Z,11.77
2023-01-08T13:52:50.074Z,11.77
2023-01-08T13:53:52.834Z,11.76
2023-01-08T13:54:55.712Z,11.68
2023-01-08T13:56:06.631Z,11.70
2023-01-08T13:57:16.338Z,11.73
2023-01-08T13:58:24.520Z,11.67
2023-01-08T13:59:48.159Z,11.67
2023-01-08T14:00:53.965Z,11.56
2023-01-08T14:01:57.859Z,11.50
2023-01-08T14:03:00.819Z,11.43
2023-01-08T14:04:03.758Z,11.33
2023-01-08T14:05:34.840Z,11.30
2023-01-08T14:06:37.628Z,11.23
2023-01-08T14:07:40.838Z,11.19
2023-01-08T14:09:01.373Z,11.15
2023-01-08T14:10:10.012Z,11.12
2023-01-08T14:11:12.648Z,11.05
2023-01-08T14:12:21.759Z,11.11
2023-01-08T14:13:29.800Z,11.07
2023-01-08T14:14:32.324Z,11.00
2023-01-08T14:15:36.522Z,10.98
2023-01-08T14:16:40.998Z,11.03
2023-01-08T14:17:44.348Z,10.97
2023-01-08T14:18:47.568Z,10.96
2023-01-08T14:19:50.210Z,10.94
2023-01-08T14:20:52.726Z,10.90
2023-01-08T14:22:01.848Z,10.91
2023-01-08T14:23:12.427Z,10.95
2023-01-08T14:24:17.569Z,10.90
2023-01-08T14:25:20.449Z,10.81
2023-01-08T14:26:41.091Z,10.83
2023-01-08T14:27:54.176Z,10.80